createdAt,value
2018-05-18T00:02:24.954Z,19.40
2018-05-18T00:04:55.127Z,19.50
2018-05-18T00:07:25.461Z,19.40
2018-05-18T00:09:55.214Z,19.20
2018-05-18T00:12:25.605Z,19.20
2018-05-18T00:14:57.358Z,19.30
2018-05-18T00:17:27.619Z,18.70
2018-05-18T00:19:58.786Z,18.40
2018-05-18T00:22:30.173Z,18.40
2018-05-18T00:25:01.043Z,18.40
2018-05-18T00:27:31.903Z,18.60
2018-05-18T00:30:02.319Z,18.60
2018-05-18T00:32:32.868Z,18.60
2018-05-18T00:35:03.510Z,18.30
2018-05-18T00:37:34.495Z,18.30
2018-05-18T00:40:04.436Z,18.30
2018-05-18T00:42:35.339Z,18.50
2018-05-18T00:45:05.650Z,18.50
2018-05-18T00:47:36.388Z,18.40
2018-05-18T00:50:06.257Z,18.40
2018-05-18T00:52:38.323Z,18.30
2018-05-18T00:55:25.126Z,18.00
2018-05-18T00:57:57.347Z,18.10
2018-05-18T01:00:27.181Z,18.10
2018-05-18T01:03:02.116Z,18.10
2018-05-18T01:05:45.557Z,18.20
2018-05-18T01:08:15.585Z,18.20
2018-05-18T01:10:45.527Z,18.20
2018-05-18T01:13:16.393Z,17.90
2018-05-18T01:15:46.173Z,17.80
2018-05-18T01:18:16.053Z,17.70
2018-05-18T01:20:46.073Z,17.80
2018-05-18T01:23:16.348Z,17.80
2018-05-18T01:25:46.091Z,17.70
2018-05-18T01:28:15.841Z,17.70
2018-05-18T01:30:46.678Z,17.90
2018-05-18T01:33:17.874Z,17.90
2018-05-18T01:35:48.177Z,17.90
2018-05-18T01:38:18.857Z,18.00
2018-05-18T01:40:50.766Z,18.10
2018-05-18T01:43:20.581Z,18.00
2018-05-18T01:45:50.569Z,18.10
2018-05-18T01:48:20.329Z,18.10
2018-05-18T01:50:51.160Z,18.10
2018-05-18T01:53:21.073Z,18.10
2018-05-18T01:55:50.845Z,18.10
2018-05-18T01:58:20.673Z,18.00
2018-05-18T02:00:50.488Z,18.00
2018-05-18T02:03:20.487Z,17.90
2018-05-18T02:05:50.258Z,17.80
2018-05-18T02:08:21.161Z,17.80
2018-05-18T02:10:51.004Z,17.70
2018-05-18T02:13:21.739Z,17.70
2018-05-18T02:15:51.718Z,17.70
2018-05-18T02:18:21.452Z,17.60
2018-05-18T02:20:51.199Z,17.60
2018-05-18T02:23:20.984Z,17.60
2018-05-18T02:25:51.021Z,17.50
2018-05-18T02:28:20.979Z,17.50
2018-05-18T02:30:50.880Z,17.40
2018-05-18T02:33:20.686Z,17.50
2018-05-18T02:35:51.274Z,17.10
2018-05-18T02:38:21.141Z,17.10
2018-05-18T02:40:51.728Z,17.10
2018-05-18T02:43:21.569Z,17.00
2018-05-18T02:45:51.373Z,17.00
2018-05-18T02:48:21.141Z,16.90
2018-05-18T02:50:51.061Z,16.90
2018-05-18T02:53:20.838Z,16.90
2018-05-18T02:55:50.692Z,16.90
2018-05-18T02:58:20.600Z,16.90
2018-05-18T03:00:51.962Z,16.80
2018-05-18T03:03:21.782Z,16.80
2018-05-18T03:05:51.520Z,16.80
2018-05-18T03:08:21.379Z,16.80
2018-05-18T03:10:51.167Z,16.80
2018-05-18T03:13:21.034Z,16.80
2018-05-18T03:15:50.785Z,16.80
2018-05-18T03:18:20.572Z,16.70
2018-05-18T03:20:50.385Z,16.60
2018-05-18T03:23:20.220Z,16.60
2018-05-18T03:25:50.716Z,16.50
2018-05-18T03:28:20.487Z,16.50
2018-05-18T03:30:50.311Z,16.40
2018-05-18T03:33:20.183Z,16.40
2018-05-18T03:35:49.993Z,16.40
2018-05-18T03:38:19.780Z,16.30
2018-05-18T03:40:49.995Z,16.30
2018-05-18T03:43:19.722Z,16.20
2018-05-18T03:45:49.506Z,16.20
2018-05-18T03:48:19.361Z,16.20
2018-05-18T03:50:49.643Z,16.10
2018-05-18T03:53:19.568Z,16.10
2018-05-18T03:55:49.996Z,16.10
2018-05-18T03:58:20.811Z,16.10
2018-05-18T04:00:53.465Z,16.10
2018-05-18T04:03:35.064Z,16.10
2018-05-18T04:06:16.669Z,16.10
2018-05-18T04:08:55.024Z,16.00
2018-05-18T04:11:26.871Z,16.00
2018-05-18T04:13:58.084Z,16.00
2018-05-18T04:16:29.204Z,15.90
2018-05-18T04:18:59.893Z,15.90
2018-05-18T04:21:30.304Z,15.90
2018-05-18T04:24:00.983Z,15.80
2018-05-18T04:26:31.654Z,15.60
2018-05-18T04:29:02.157Z,15.60
2018-05-18T04:31:33.267Z,15.60
2018-05-18T04:34:03.084Z,15.50
2018-05-18T04:36:35.078Z,15.50
2018-05-18T04:39:05.593Z,15.50
2018-05-18T04:41:35.420Z,15.50
2018-05-18T04:44:06.013Z,15.60
2018-05-18T04:46:35.785Z,15.50
2018-05-18T04:49:05.595Z,15.70
2018-05-18T04:51:35.415Z,15.70
2018-05-18T04:54:05.177Z,15.70
2018-05-18T04:56:34.892Z,15.80
2018-05-18T04:59:04.684Z,15.80
2018-05-18T05:01:36.067Z,15.80
2018-05-18T05:04:06.580Z,15.70
2018-05-18T05:06:36.364Z,15.60
2018-05-18T05:09:06.476Z,15.70
2018-05-18T05:11:36.276Z,15.60
2018-05-18T05:14:07.840Z,15.70
2018-05-18T05:16:37.727Z,15.70
2018-05-18T05:19:07.548Z,15.80
2018-05-18T05:21:37.268Z,15.80
2018-05-18T05:24:07.033Z,15.80
2018-05-18T05:26:36.956Z,15.80
2018-05-18T05:29:07.526Z,15.70
2018-05-18T05:31:37.262Z,15.60
2018-05-18T05:34:07.011Z,15.60
2018-05-18T05:36:41.458Z,15.60
2018-05-18T05:39:11.301Z,15.50
2018-05-18T05:41:41.812Z,15.40
2018-05-18T05:44:12.760Z,15.40
2018-05-18T05:46:42.512Z,15.30
2018-05-18T05:49:12.318Z,15.30
2018-05-18T05:51:42.982Z,15.20
2018-05-18T05:54:12.704Z,15.40
2018-05-18T05:56:43.229Z,15.30
2018-05-18T05:59:13.067Z,15.30
2018-05-18T06:01:42.897Z,15.30
2018-05-18T06:04:12.668Z,15.20
2018-05-18T06:06:42.389Z,15.20
2018-05-18T06:09:12.205Z,15.20
2018-05-18T06:11:41.956Z,15.20
2018-05-18T06:14:11.859Z,15.20
2018-05-18T06:16:41.568Z,15.10
2018-05-18T06:19:11.447Z,15.10
2018-05-18T06:21:41.170Z,15.10
2018-05-18T06:24:11.726Z,15.10
2018-05-18T06:26:42.046Z,15.10
2018-05-18T06:29:11.899Z,15.10
2018-05-18T06:31:42.944Z,15.20
2018-05-18T06:34:13.227Z,15.20
2018-05-18T06:36:42.981Z,15.20
2018-05-18T06:39:13.171Z,15.20
2018-05-18T06:41:43.319Z,15.20
2018-05-18T06:44:13.115Z,15.10
2018-05-18T06:46:43.458Z,15.00
2018-05-18T06:49:14.636Z,15.00
2018-05-18T06:51:44.906Z,14.90
2018-05-18T06:54:16.027Z,14.90
2018-05-18T06:56:46.458Z,14.90
2018-05-18T06:59:16.923Z,14.90
2018-05-18T07:01:47.351Z,14.80
2018-05-18T07:04:18.742Z,14.80
2018-05-18T07:06:49.388Z,14.70
2018-05-18T07:09:19.128Z,14.70
2018-05-18T07:11:49.434Z,14.70
2018-05-18T07:14:20.047Z,14.70
2018-05-18T07:16:50.483Z,14.60
2018-05-18T07:19:20.717Z,14.60
2018-05-18T07:21:50.421Z,14.50
2018-05-18T07:24:20.775Z,14.40
2018-05-18T07:26:51.699Z,14.40
2018-05-18T07:29:22.015Z,14.40
2018-05-18T07:31:53.456Z,14.40
2018-05-18T07:34:23.778Z,14.40
2018-05-18T07:36:53.535Z,14.50
2018-05-18T07:39:23.893Z,14.50
2018-05-18T07:41:54.445Z,14.40
2018-05-18T07:44:24.877Z,14.40
2018-05-18T07:46:55.488Z,14.40
2018-05-18T07:49:26.029Z,14.30
2018-05-18T07:51:55.773Z,14.20
2018-05-18T07:54:26.482Z,14.10
2018-05-18T07:56:56.863Z,14.10
2018-05-18T07:59:27.777Z,14.00
2018-05-18T08:01:58.908Z,14.00
2018-05-18T08:04:28.947Z,14.00
2018-05-18T08:06:59.230Z,14.00
2018-05-18T08:09:29.414Z,14.00
2018-05-18T08:12:00.598Z,13.80
2018-05-18T08:14:30.606Z,13.80
2018-05-18T08:17:00.752Z,13.80
2018-05-18T08:19:30.979Z,13.80
2018-05-18T08:22:01.334Z,13.80
2018-05-18T08:24:32.558Z,13.80
2018-05-18T08:27:13.930Z,13.70
2018-05-18T08:29:45.366Z,13.80
2018-05-18T08:32:15.172Z,13.90
2018-05-18T08:34:45.011Z,13.90
2018-05-18T08:37:14.782Z,13.80
2018-05-18T08:39:45.345Z,13.90
2018-05-18T08:42:15.775Z,13.60
2018-05-18T08:44:46.291Z,13.60
2018-05-18T08:47:17.007Z,13.60
2018-05-18T08:49:47.878Z,13.60
2018-05-18T08:52:18.487Z,13.60
2018-05-18T08:54:48.835Z,13.60
2018-05-18T08:57:19.547Z,13.50
2018-05-18T08:59:49.897Z,13.50
2018-05-18T09:02:19.599Z,13.50
2018-05-18T09:04:49.304Z,13.50
2018-05-18T09:07:19.041Z,13.50
2018-05-18T09:09:48.797Z,13.50
2018-05-18T09:12:18.469Z,13.40
2018-05-18T09:14:48.220Z,13.40
2018-05-18T09:17:17.935Z,13.30
2018-05-18T09:19:47.665Z,13.20
2018-05-18T09:22:17.423Z,13.20
2018-05-18T09:24:48.011Z,13.20
2018-05-18T09:27:17.745Z,13.20
2018-05-18T09:29:47.439Z,13.20
2018-05-18T09:32:17.121Z,13.20
2018-05-18T09:34:46.803Z,13.20
2018-05-18T09:37:16.539Z,13.20
2018-05-18T09:39:46.484Z,13.30
2018-05-18T09:42:16.317Z,13.20
2018-05-18T09:44:46.133Z,13.20
2018-05-18T09:47:16.606Z,13.20
2018-05-18T09:49:46.426Z,13.20
2018-05-18T09:52:17.169Z,13.30
2018-05-18T09:54:47.834Z,13.30
2018-05-18T09:57:18.715Z,13.30
2018-05-18T09:59:48.965Z,13.20
2018-05-18T10:02:20.056Z,13.10
2018-05-18T10:04:51.811Z,13.00
2018-05-18T10:07:23.308Z,13.00
2018-05-18T10:09:54.616Z,13.00
2018-05-18T10:12:25.816Z,13.00
2018-05-18T10:14:56.671Z,13.10
2018-05-18T10:17:27.546Z,12.80
2018-05-18T10:19:57.552Z,12.90
2018-05-18T10:22:27.504Z,12.90
2018-05-18T10:24:57.430Z,12.60
2018-05-18T10:27:27.177Z,12.60
2018-05-18T10:29:57.661Z,12.70
2018-05-18T10:32:27.453Z,12.70
2018-05-18T10:34:57.547Z,12.80
2018-05-18T10:37:28.448Z,12.80
2018-05-18T10:39:58.808Z,12.80
2018-05-18T10:42:29.323Z,12.80
2018-05-18T10:45:00.568Z,12.60
2018-05-18T10:47:31.012Z,12.60
2018-05-18T10:50:01.552Z,12.60
2018-05-18T10:52:32.739Z,12.60
2018-05-18T10:55:02.454Z,12.70
2018-05-18T10:57:32.186Z,12.80
2018-05-18T11:00:01.889Z,12.80
2018-05-18T11:02:31.998Z,12.80
2018-05-18T11:05:01.717Z,12.80
2018-05-18T11:07:31.579Z,12.90
2018-05-18T11:10:02.752Z,12.90
2018-05-18T11:12:33.494Z,12.90
2018-05-18T11:15:03.202Z,12.90
2018-05-18T11:17:34.366Z,12.90
2018-05-18T11:20:04.947Z,12.80
2018-05-18T11:22:34.592Z,12.80
2018-05-18T11:25:04.283Z,12.90
2018-05-18T11:27:34.041Z,12.90
2018-05-18T11:30:04.100Z,12.90
2018-05-18T11:32:33.852Z,12.90
2018-05-18T11:35:03.620Z,12.90
2018-05-18T11:37:33.408Z,12.90
2018-05-18T11:40:03.119Z,12.90
2018-05-18T11:42:32.923Z,12.90
2018-05-18T11:45:02.672Z,12.70
2018-05-18T11:47:32.374Z,12.70
2018-05-18T11:50:03.601Z,12.80
2018-05-18T11:52:34.088Z,12.70
2018-05-18T11:55:03.862Z,12.80
2018-05-18T11:57:33.610Z,12.80
2018-05-18T12:00:03.340Z,12.80
2018-05-18T12:02:33.175Z,12.70
2018-05-18T12:05:02.933Z,12.80
2018-05-18T12:07:32.646Z,12.80
2018-05-18T12:10:02.343Z,12.90
2018-05-18T12:12:32.780Z,12.90
2018-05-18T12:15:02.516Z,12.90
2018-05-18T12:17:32.204Z,12.90
2018-05-18T12:20:01.868Z,12.80
2018-05-18T12:22:32.106Z,12.80
2018-05-18T12:25:03.503Z,12.80
2018-05-18T12:27:33.840Z,12.80
2018-05-18T12:30:04.336Z,12.80
2018-05-18T12:32:34.537Z,12.80
2018-05-18T12:35:05.017Z,12.60
2018-05-18T12:37:34.722Z,12.60
2018-05-18T12:40:05.031Z,12.50
2018-05-18T12:42:35.587Z,12.50
2018-05-18T12:45:05.832Z,12.50
2018-05-18T12:47:36.935Z,12.60
2018-05-18T12:50:07.367Z,12.60
2018-05-18T12:52:37.809Z,12.70
2018-05-18T12:55:08.333Z,12.70
2018-05-18T12:57:38.377Z,12.70
2018-05-18T13:00:08.811Z,12.70
2018-05-18T13:02:39.361Z,12.80
2018-05-18T13:05:09.092Z,12.80
2018-05-18T13:07:38.841Z,12.80
2018-05-18T13:10:08.570Z,12.70
2018-05-18T13:12:39.674Z,12.70
2018-05-18T13:15:09.540Z,12.70
2018-05-18T13:17:39.246Z,12.80
2018-05-18T13:20:09.030Z,12.70
2018-05-18T13:22:38.894Z,12.70
2018-05-18T13:25:08.738Z,12.50
2018-05-18T13:27:38.580Z,12.40
2018-05-18T13:30:09.210Z,12.40
2018-05-18T13:32:38.930Z,12.40
2018-05-18T13:35:08.706Z,12.40
2018-05-18T13:37:38.514Z,12.50
2018-05-18T13:40:08.267Z,12.60
2018-05-18T13:42:38.838Z,12.70
2018-05-18T13:45:08.633Z,12.70
2018-05-18T13:47:39.808Z,12.70
2018-05-18T13:50:10.567Z,12.70
2018-05-18T13:52:41.114Z,12.70
2018-05-18T13:55:11.662Z,12.60
2018-05-18T13:57:43.098Z,12.50
2018-05-18T14:00:13.660Z,12.50
2018-05-18T14:02:43.453Z,12.40
2018-05-18T14:05:13.258Z,12.60
2018-05-18T14:07:43.035Z,12.70
2018-05-18T14:10:12.798Z,12.80
2018-05-18T14:12:42.556Z,12.60
2018-05-18T14:15:12.284Z,12.60
2018-05-18T14:17:42.044Z,12.60
2018-05-18T14:20:11.896Z,12.60
2018-05-18T14:22:42.117Z,12.60
2018-05-18T14:25:12.647Z,12.50
2018-05-18T14:27:42.430Z,12.60
2018-05-18T14:30:12.285Z,12.40
2018-05-18T14:32:42.819Z,12.40
2018-05-18T14:35:13.171Z,12.40
2018-05-18T14:37:44.593Z,12.40
2018-05-18T14:40:15.889Z,12.50
2018-05-18T14:42:45.890Z,12.50
2018-05-18T14:45:16.843Z,12.40
2018-05-18T14:47:47.405Z,12.50
2018-05-18T14:50:18.493Z,12.50
2018-05-18T14:52:49.826Z,12.40
2018-05-18T14:55:20.303Z,12.40
2018-05-18T14:57:50.732Z,12.40
2018-05-18T15:00:20.947Z,12.30
2018-05-18T15:02:51.195Z,12.40
2018-05-18T15:05:21.848Z,12.40
2018-05-18T15:07:52.340Z,12.50
2018-05-18T15:10:23.583Z,12.50
2018-05-18T15:12:53.968Z,12.40
2018-05-18T15:15:23.964Z,12.40
2018-05-18T15:17:54.378Z,12.60
2018-05-18T15:20:24.702Z,12.80
2018-05-18T15:22:55.043Z,12.70
2018-05-18T15:25:25.451Z,12.70
2018-05-18T15:27:55.517Z,12.80
2018-05-18T15:30:27.019Z,12.80
2018-05-18T15:32:57.465Z,12.80
2018-05-18T15:35:27.632Z,12.90
2018-05-18T15:37:58.196Z,13.10
2018-05-18T15:40:28.414Z,13.20
2018-05-18T15:42:58.647Z,13.20
2018-05-18T15:45:28.866Z,13.20
2018-05-18T15:47:59.294Z,12.90
2018-05-18T15:50:29.426Z,12.80
2018-05-18T15:52:59.869Z,12.70
2018-05-18T15:55:30.460Z,12.70
2018-05-18T15:58:00.781Z,12.60
2018-05-18T16:00:30.925Z,12.70
2018-05-18T16:03:01.313Z,12.90
2018-05-18T16:05:31.667Z,12.80
2018-05-18T16:08:01.961Z,12.70
2018-05-18T16:10:32.216Z,12.70
2018-05-18T16:13:02.553Z,12.80
2018-05-18T16:15:32.832Z,12.80
2018-05-18T16:18:03.275Z,12.60
2018-05-18T16:20:33.414Z,12.50
2018-05-18T16:23:03.993Z,12.70
2018-05-18T16:25:34.246Z,12.90
2018-05-18T16:28:04.375Z,13.10
2018-05-18T16:30:34.794Z,13.10
2018-05-18T16:33:05.219Z,13.30
2018-05-18T16:35:35.465Z,13.50
2018-05-18T16:38:05.609Z,13.80
2018-05-18T16:40:36.112Z,13.80
2018-05-18T16:43:06.580Z,13.80
2018-05-18T16:45:36.920Z,13.90
2018-05-18T16:48:07.319Z,14.20
2018-05-18T16:50:37.599Z,14.20
2018-05-18T16:53:08.167Z,14.30
2018-05-18T16:55:38.518Z,14.30
2018-05-18T16:58:09.787Z,14.90
2018-05-18T17:00:40.073Z,14.80
2018-05-18T17:03:10.576Z,15.00
2018-05-18T17:05:41.126Z,14.70
2018-05-18T17:08:11.627Z,14.60
2018-05-18T17:10:42.183Z,14.80
2018-05-18T17:13:12.783Z,15.00
2018-05-18T17:15:43.513Z,14.90
2018-05-18T17:18:13.973Z,15.10
2018-05-18T17:20:43.997Z,15.30
2018-05-18T17:23:14.604Z,15.40
2018-05-18T17:25:44.994Z,15.50
2018-05-18T17:28:15.437Z,15.70
2018-05-18T17:30:45.782Z,15.80
2018-05-18T17:33:16.382Z,16.00
2018-05-18T17:35:46.853Z,15.50
2018-05-18T17:38:17.386Z,15.40
2018-05-18T17:40:47.914Z,15.80
2018-05-18T17:43:18.133Z,16.00
2018-05-18T17:45:48.916Z,15.90
2018-05-18T17:48:19.590Z,15.80
2018-05-18T17:50:49.921Z,15.90
2018-05-18T17:53:20.079Z,15.60
2018-05-18T17:55:51.327Z,15.40
2018-05-18T17:58:22.851Z,15.60
2018-05-18T18:00:53.507Z,15.60
2018-05-18T18:03:24.616Z,15.80
2018-05-18T18:05:55.099Z,15.70
2018-05-18T18:08:26.164Z,15.80
2018-05-18T18:10:56.818Z,15.80
2018-05-18T18:13:27.165Z,16.20
2018-05-18T18:15:57.149Z,16.20
2018-05-18T18:18:27.489Z,16.10
2018-05-18T18:20:59.537Z,16.20
2018-05-18T18:23:30.179Z,16.20
2018-05-18T18:26:00.308Z,16.40
2018-05-18T18:28:30.581Z,16.40
2018-05-18T18:31:00.680Z,16.10
2018-05-18T18:33:30.888Z,16.10
2018-05-18T18:36:01.026Z,16.30
2018-05-18T18:38:31.133Z,16.40
2018-05-18T18:41:01.352Z,16.70
2018-05-18T18:43:31.552Z,16.80
2018-05-18T18:46:02.167Z,17.00
2018-05-18T18:48:32.523Z,16.60
2018-05-18T18:51:02.697Z,16.30
2018-05-18T18:53:32.748Z,16.30
2018-05-18T18:56:03.308Z,16.00
2018-05-18T18:58:33.724Z,16.30
2018-05-18T19:01:03.746Z,16.60
2018-05-18T19:03:33.967Z,16.60
2018-05-18T19:06:04.951Z,16.90
2018-05-18T19:08:35.904Z,16.30
2018-05-18T19:11:06.552Z,16.50
2018-05-18T19:13:38.642Z,16.90
2018-05-18T19:16:12.524Z,17.40
2018-05-18T19:18:52.411Z,17.40
2018-05-18T19:21:27.091Z,17.10
2018-05-18T19:23:57.638Z,17.10
2018-05-18T19:26:27.966Z,17.60
2018-05-18T19:29:01.408Z,17.80
2018-05-18T19:31:32.408Z,18.20
2018-05-18T19:34:02.616Z,18.10
2018-05-18T19:36:33.621Z,17.90
2018-05-18T19:39:04.838Z,17.50
2018-05-18T19:41:35.539Z,17.60
2018-05-18T19:44:10.239Z,17.30
2018-05-18T19:46:52.791Z,17.60
2018-05-18T19:49:36.699Z,17.70
2018-05-18T19:52:21.492Z,18.00
2018-05-18T19:54:52.464Z,18.40
2018-05-18T19:57:23.489Z,18.30
2018-05-18T19:59:53.484Z,18.30
2018-05-18T20:02:23.602Z,18.10
2018-05-18T20:04:54.024Z,18.00
2018-05-18T20:07:24.301Z,18.00
2018-05-18T20:09:55.363Z,17.70
2018-05-18T20:12:25.705Z,17.70
2018-05-18T20:14:55.834Z,17.50
2018-05-18T20:17:25.877Z,17.50
2018-05-18T20:19:56.375Z,17.70
2018-05-18T20:22:26.606Z,17.60
2018-05-18T20:24:57.321Z,17.70
2018-05-18T20:27:27.398Z,17.60
2018-05-18T20:29:58.714Z,17.70
2018-05-18T20:32:28.851Z,17.70
2018-05-18T20:34:59.362Z,17.70
2018-05-18T20:37:29.645Z,17.90
2018-05-18T20:40:00.315Z,17.80
2018-05-18T20:42:30.120Z,17.90
2018-05-18T20:45:00.705Z,17.90
2018-05-18T20:47:31.204Z,17.90
2018-05-18T20:50:01.520Z,17.70
2018-05-18T20:52:31.865Z,17.60
2018-05-18T20:55:02.368Z,17.50
2018-05-18T20:57:32.994Z,17.60
2018-05-18T21:00:03.338Z,17.40
2018-05-18T21:02:33.476Z,17.60
2018-05-18T21:05:03.536Z,17.40
2018-05-18T21:07:33.779Z,17.40
2018-05-18T21:10:03.544Z,17.40
2018-05-18T21:12:34.471Z,17.70
2018-05-18T21:15:04.764Z,17.70
2018-05-18T21:17:34.923Z,17.70
2018-05-18T21:20:05.174Z,17.70
2018-05-18T21:22:35.677Z,18.20
2018-05-18T21:25:07.016Z,18.20
2018-05-18T21:27:37.552Z,18.20
2018-05-18T21:30:08.092Z,18.40
2018-05-18T21:32:39.537Z,18.60
2018-05-18T21:35:10.233Z,18.60
2018-05-18T21:37:40.436Z,18.70
2018-05-18T21:40:11.119Z,18.90
2018-05-18T21:42:42.731Z,18.70
2018-05-18T21:45:13.264Z,18.70
2018-05-18T21:47:44.405Z,19.00
2018-05-18T21:50:14.936Z,19.00
2018-05-18T21:52:45.074Z,19.00
2018-05-18T21:55:15.042Z,19.20
2018-05-18T21:57:45.001Z,19.30
2018-05-18T22:00:15.051Z,19.40
2018-05-18T22:02:45.573Z,19.60
2018-05-18T22:05:16.213Z,19.60
2018-05-18T22:07:49.231Z,20.00
2018-05-18T22:10:20.797Z,20.00
2018-05-18T22:12:51.893Z,19.80
2018-05-18T22:15:22.158Z,19.90
2018-05-18T22:17:52.430Z,19.90
2018-05-18T22:20:22.751Z,20.50
2018-05-18T22:22:53.245Z,19.90
2018-05-18T22:25:23.871Z,20.10
2018-05-18T22:27:54.415Z,19.50
2018-05-18T22:30:24.652Z,19.50
2018-05-18T22:32:55.254Z,19.20
2018-05-18T22:35:25.447Z,19.60
2018-05-18T22:37:55.831Z,20.10
2018-05-18T22:40:26.284Z,20.20
2018-05-18T22:42:57.913Z,19.40
2018-05-18T22:45:28.655Z,19.40
2018-05-18T22:47:59.050Z,19.20
2018-05-18T22:50:28.820Z,19.40
2018-05-18T22:52:59.380Z,19.60
2018-05-18T22:55:29.124Z,19.60
2018-05-18T22:57:59.527Z,19.40
2018-05-18T23:00:30.110Z,19.20
2018-05-18T23:03:00.645Z,19.30
2018-05-18T23:05:31.214Z,19.20
2018-05-18T23:08:02.074Z,19.30
2018-05-18T23:10:32.336Z,19.40
2018-05-18T23:13:02.873Z,18.80
2018-05-18T23:15:32.976Z,18.80
2018-05-18T23:18:03.099Z,18.60
2018-05-18T23:20:34.473Z,18.50
2018-05-18T23:23:06.380Z,18.50
2018-05-18T23:25:36.161Z,18.40
2018-05-18T23:28:06.636Z,18.60
2018-05-18T23:30:36.914Z,18.70
2018-05-18T23:33:07.456Z,18.70
2018-05-18T23:35:37.675Z,18.70
2018-05-18T23:38:08.217Z,18.70
2018-05-18T23:40:39.023Z,19.10
2018-05-18T23:43:08.776Z,19.60
2018-05-18T23:45:39.129Z,20.20
2018-05-18T23:48:09.390Z,20.10
2018-05-18T23:50:39.580Z,20.30
2018-05-18T23:53:10.152Z,19.90
2018-05-18T23:55:39.854Z,20.40
2018-05-18T23:58:09.552Z,21.10
